Covington, Oklahoma
Current Conditions -  °F | °C
As of 10:50 AM on Saturday 22 Nov 2014 (Local Time) from KWDG Reporting Station
Broken Clouds Broken Clouds  
Wind Chill: 57°   Ceiling: 15000
Heat Index: 57°   Visibility: 10mi
Dew Point: 57°   Wind: 12mph
Humidity: 100%   Direction: 180°S
Pressure: 29.93"   Gusts: NA
Location:  36.31°N, 97.59°W
Report Text: KWDG 221650Z 18010KT 10SM BKN150 BKN200 14/14 A2993
Loading
Personal Weather Stations






























Interactive Weather Map New forecast layout! Learn more

10-Day Weather Forecast

Advertisements
Track Severe Weather on mobile